Time;durP1;ratioP1;P1;durP2;ratioP2;P2;SDS_P1;SDS_P2;PMS_P1;PMS_P2;Temp;Humidity;BMP_temperature;BMP_pressure;BME280_temperature;BME280_humidity;BME280_pressure;Samples;Min_cycle;Max_cycle;Signal;HPM_P1;HPM_P2
2023/08/02 00:00:12;;;;;;;8.35;2.30;;;;;;;;;;5034099;28;20040;-74
2023/08/02 00:02:38;;;;;;;6.45;2.05;;;;;;;;;;5029902;28;20029;-74
2023/08/02 00:05:04;;;;;;;11.90;2.40;;;;;;;;;;5032507;28;20488;-74
2023/08/02 00:07:30;;;;;;;8.40;2.55;;;;;;;;;;5030006;28;20040;-73
2023/08/02 00:09:57;;;;;;;10.98;2.17;;;;;;;;;;5025876;28;20041;-73
2023/08/02 00:12:23;;;;;;;6.72;2.15;;;;;;;;;;5032807;28;20071;-73
2023/08/02 00:14:49;;;;;;;10.55;2.90;;;;;;;;;;5024104;28;20033;-73
2023/08/02 00:17:15;;;;;;;13.07;3.47;;;;;;;;;;5030960;28;20044;-73
2023/08/02 00:19:41;;;;;;;11.68;2.72;;;;;;;;;;5022640;28;20037;-73
2023/08/02 00:22:07;;;;;;;12.15;2.70;;;;;;;;;;5029836;28;20045;-72
2023/08/02 00:24:33;;;;;;;14.95;3.08;;;;;;;;;;5027598;28;20504;-73
2023/08/02 00:26:59;;;;;;;7.20;2.33;;;;;;;;;;5034934;28;20037;-73
2023/08/02 00:29:25;;;;;;;6.28;2.13;;;;;;;;;;5027408;28;20032;-73
2023/08/02 00:31:51;;;;;;;9.38;2.35;;;;;;;;;;5018018;28;20026;-73
2023/08/02 00:34:17;;;;;;;9.55;2.30;;;;;;;;;;5025970;28;20079;-73
2023/08/02 00:36:43;;;;;;;9.98;3.05;;;;;;;;;;5032051;28;20045;-73
2023/08/02 00:39:10;;;;;;;8.75;2.50;;;;;;;;;;5031595;28;20029;-73
2023/08/02 00:41:36;;;;;;;11.02;2.38;;;;;;;;;;5014266;28;20486;-73
2023/08/02 00:44:02;;;;;;;11.40;2.38;;;;;;;;;;5029230;28;20042;-73
2023/08/02 00:46:28;;;;;;;13.13;3.28;;;;;;;;;;5029578;28;20032;-73
2023/08/02 00:48:54;;;;;;;20.83;3.35;;;;;;;;;;5024645;28;20051;-73
2023/08/02 00:51:20;;;;;;;9.93;2.90;;;;;;;;;;5026360;28;20045;-73
2023/08/02 00:53:47;;;;;;;6.80;3.00;;;;;;;;;;5029154;28;20266;-72
2023/08/02 00:56:16;;;;;;;6.75;3.00;;;;;;;;;;5024406;28;20033;-73
2023/08/02 00:58:43;;;;;;;7.82;3.25;;;;;;;;;;5027611;28;20034;-73
2023/08/02 01:01:09;;;;;;;9.27;2.95;;;;;;;;;;5027710;28;20033;-73
2023/08/02 01:03:36;;;;;;;9.57;3.10;;;;;;;;;;5040514;28;20029;-73
2023/08/02 01:06:07;;;;;;;10.80;3.63;;;;;;;;;;5027673;28;20032;-74
2023/08/02 01:08:36;;;;;;;10.57;3.20;;;;;;;;;;5033133;28;20502;-74
2023/08/02 01:11:09;;;;;;;10.85;3.40;;;;;;;;;;5032156;28;20335;-73
2023/08/02 01:13:36;;;;;;;8.55;3.20;;;;;;;;;;5033012;28;20021;-73
2023/08/02 01:16:03;;;;;;;15.23;3.58;;;;;;;;;;5035552;28;20057;-73
2023/08/02 01:18:29;;;;;;;7.97;3.55;;;;;;;;;;5031953;28;20038;-73
2023/08/02 01:20:55;;;;;;;9.32;3.35;;;;;;;;;;5011353;28;20092;-72
2023/08/02 01:23:21;;;;;;;9.02;3.15;;;;;;;;;;5034037;28;20025;-73
2023/08/02 01:25:48;;;;;;;7.57;3.45;;;;;;;;;;5031860;28;20033;-73
2023/08/02 01:28:17;;;;;;;12.20;3.83;;;;;;;;;;5035306;28;20065;-73
2023/08/02 01:30:45;;;;;;;8.23;3.60;;;;;;;;;;5027164;28;20053;-73
2023/08/02 01:33:12;;;;;;;11.45;4.43;;;;;;;;;;5027594;28;20120;-73
2023/08/02 01:35:38;;;;;;;13.02;4.15;;;;;;;;;;5035538;28;20028;-73
2023/08/02 01:38:04;;;;;;;9.00;3.47;;;;;;;;;;5031614;28;20038;-73
2023/08/02 01:40:30;;;;;;;11.88;3.47;;;;;;;;;;5032508;28;20033;-73
2023/08/02 01:42:56;;;;;;;16.70;4.53;;;;;;;;;;5035047;28;20087;-73
2023/08/02 01:45:23;;;;;;;6.88;3.10;;;;;;;;;;5034739;28;20426;-73
2023/08/02 01:47:51;;;;;;;8.23;3.75;;;;;;;;;;5034266;28;20094;-73
2023/08/02 01:50:17;;;;;;;13.77;3.83;;;;;;;;;;5025347;28;20497;-73
2023/08/02 01:52:43;;;;;;;11.65;3.78;;;;;;;;;;5029949;28;20041;-73
2023/08/02 01:55:09;;;;;;;11.65;4.65;;;;;;;;;;5035153;28;20030;-73
2023/08/02 01:57:35;;;;;;;9.77;3.45;;;;;;;;;;5030567;28;20494;-73
2023/08/02 02:00:01;;;;;;;14.85;4.03;;;;;;;;;;5036704;28;20081;-73
2023/08/02 02:02:27;;;;;;;10.40;3.78;;;;;;;;;;5029850;28;20520;-73
2023/08/02 02:04:53;;;;;;;6.40;3.70;;;;;;;;;;5028427;28;20038;-73
2023/08/02 02:07:19;;;;;;;8.88;3.90;;;;;;;;;;5031957;28;20029;-73
2023/08/02 02:09:45;;;;;;;11.25;4.00;;;;;;;;;;5028895;28;20063;-73
2023/08/02 02:12:11;;;;;;;12.23;3.63;;;;;;;;;;5028771;28;20479;-73
2023/08/02 02:14:37;;;;;;;10.80;3.75;;;;;;;;;;5038024;28;20096;-73
2023/08/02 02:17:03;;;;;;;8.75;3.60;;;;;;;;;;5028973;28;20049;-73
2023/08/02 02:19:29;;;;;;;10.70;3.92;;;;;;;;;;5031191;28;20122;-73
2023/08/02 02:21:55;;;;;;;17.38;3.70;;;;;;;;;;5030958;28;20025;-73
2023/08/02 02:24:21;;;;;;;10.60;4.05;;;;;;;;;;5028195;28;20387;-73
2023/08/02 02:26:47;;;;;;;10.93;4.20;;;;;;;;;;5037030;28;20479;-73
2023/08/02 02:29:13;;;;;;;20.52;4.30;;;;;;;;;;5033640;28;20040;-72
2023/08/02 02:31:39;;;;;;;22.10;4.25;;;;;;;;;;5034039;28;20041;-72
2023/08/02 02:34:05;;;;;;;13.25;4.07;;;;;;;;;;5026732;28;20184;-72
2023/08/02 02:36:31;;;;;;;16.50;4.68;;;;;;;;;;5032662;28;20037;-72
2023/08/02 02:38:57;;;;;;;15.50;5.18;;;;;;;;;;5030392;28;20052;-72
2023/08/02 02:41:23;;;;;;;12.45;4.25;;;;;;;;;;5032817;28;20658;-72
2023/08/02 02:43:49;;;;;;;10.02;3.97;;;;;;;;;;5033952;28;20132;-71
2023/08/02 02:46:15;;;;;;;20.50;5.18;;;;;;;;;;5029050;28;20108;-75
2023/08/02 02:48:41;;;;;;;14.20;5.45;;;;;;;;;;5029996;28;20155;-74
2023/08/02 02:51:07;;;;;;;9.00;3.83;;;;;;;;;;5030554;28;20033;-73
2023/08/02 02:53:33;;;;;;;19.88;4.47;;;;;;;;;;5027061;28;20388;-73
2023/08/02 02:55:59;;;;;;;13.35;4.55;;;;;;;;;;5027266;28;20030;-74
2023/08/02 02:58:25;;;;;;;13.80;3.53;;;;;;;;;;5037651;28;20516;-75
2023/08/02 03:00:53;;;;;;;22.52;12.18;;;;;;;;;;5024013;28;20593;-74
2023/08/02 03:03:19;;;;;;;28.45;9.05;;;;;;;;;;5035788;28;20037;-73
2023/08/02 03:05:45;;;;;;;81.75;49.75;;;;;;;;;;5029735;28;20120;-73
2023/08/02 03:08:11;;;;;;;15.82;4.53;;;;;;;;;;5026546;28;20179;-75
2023/08/02 03:10:37;;;;;;;14.57;4.80;;;;;;;;;;5018491;28;20045;-75
2023/08/02 03:13:03;;;;;;;18.20;5.20;;;;;;;;;;5031931;28;20039;-74
2023/08/02 03:15:29;;;;;;;15.75;4.85;;;;;;;;;;5022775;28;20041;-74
2023/08/02 03:17:55;;;;;;;24.13;5.35;;;;;;;;;;5022139;28;20067;-74
2023/08/02 03:20:21;;;;;;;20.50;5.00;;;;;;;;;;5028381;28;20033;-75
2023/08/02 03:22:47;;;;;;;18.67;5.05;;;;;;;;;;5027996;28;20040;-74
2023/08/02 03:25:13;;;;;;;16.35;4.57;;;;;;;;;;5029965;28;20060;-75
2023/08/02 03:27:40;;;;;;;22.65;7.72;;;;;;;;;;5026825;28;20041;-76
2023/08/02 03:30:06;;;;;;;14.85;5.43;;;;;;;;;;5030085;28;20034;-75
2023/08/02 03:35:25;;;;;;;17.77;5.00;;;;;;;;;;5007353;28;20403;-75
2023/08/02 03:37:51;;;;;;;17.90;5.00;;;;;;;;;;5019360;28;20052;-73
2023/08/02 03:40:17;;;;;;;22.60;6.28;;;;;;;;;;5016090;28;20038;-73
2023/08/02 03:42:43;;;;;;;24.58;6.07;;;;;;;;;;5021459;28;20059;-73
2023/08/02 03:45:09;;;;;;;13.95;5.30;;;;;;;;;;5025647;28;20037;-73
2023/08/02 03:47:35;;;;;;;18.77;6.20;;;;;;;;;;5012982;28;20119;-73
2023/08/02 03:50:01;;;;;;;22.10;6.25;;;;;;;;;;5014884;28;20609;-75
2023/08/02 03:52:27;;;;;;;21.95;6.20;;;;;;;;;;5012019;28;20048;-75
2023/08/02 03:54:54;;;;;;;18.35;5.75;;;;;;;;;;5021019;28;20203;-75
2023/08/02 03:57:20;;;;;;;23.88;6.22;;;;;;;;;;5023480;28;20072;-75
2023/08/02 03:59:46;;;;;;;28.00;6.60;;;;;;;;;;5017084;28;20061;-73
2023/08/02 04:02:12;;;;;;;21.77;6.50;;;;;;;;;;5023163;28;20084;-75
2023/08/02 04:04:38;;;;;;;26.83;7.93;;;;;;;;;;5022666;28;20390;-75
2023/08/02 04:07:04;;;;;;;20.23;6.15;;;;;;;;;;5014902;28;20033;-75
2023/08/02 04:09:30;;;;;;;18.17;5.55;;;;;;;;;;5016108;28;20040;-75
2023/08/02 04:11:56;;;;;;;28.85;6.53;;;;;;;;;;5022982;28;20025;-74
2023/08/02 04:14:22;;;;;;;25.35;7.40;;;;;;;;;;5018876;28;20034;-74
2023/08/02 04:16:48;;;;;;;20.75;6.70;;;;;;;;;;5015390;28;20038;-73
2023/08/02 04:19:14;;;;;;;17.95;6.07;;;;;;;;;;5018542;28;20062;-75
2023/08/02 04:21:40;;;;;;;16.85;6.30;;;;;;;;;;5024844;28;20033;-73
2023/08/02 04:24:06;;;;;;;19.80;6.95;;;;;;;;;;5019136;28;20041;-74
2023/08/02 04:26:32;;;;;;;22.85;9.25;;;;;;;;;;5024937;28;20100;-76
2023/08/02 04:28:58;;;;;;;21.17;6.57;;;;;;;;;;5021746;28;20068;-75
2023/08/02 04:31:24;;;;;;;25.15;7.63;;;;;;;;;;5021608;28;20033;-73
2023/08/02 04:33:50;;;;;;;23.08;6.05;;;;;;;;;;5020443;28;20040;-74
2023/08/02 04:36:16;;;;;;;16.98;6.63;;;;;;;;;;5023381;28;20514;-74
2023/08/02 04:38:42;;;;;;;25.20;6.45;;;;;;;;;;5020177;28;20029;-74
2023/08/02 04:41:14;;;;;;;21.02;6.95;;;;;;;;;;5031350;28;20034;-74
2023/08/02 04:43:40;;;;;;;24.00;6.90;;;;;;;;;;5021787;28;20048;-74
2023/08/02 04:46:06;;;;;;;21.38;6.75;;;;;;;;;;5029861;28;20386;-74
2023/08/02 04:48:32;;;;;;;18.83;6.60;;;;;;;;;;5000789;28;20060;-73
2023/08/02 04:50:58;;;;;;;20.30;7.07;;;;;;;;;;5024245;28;20044;-74
2023/08/02 04:53:24;;;;;;;18.70;7.47;;;;;;;;;;5024403;28;20541;-73
2023/08/02 04:55:50;;;;;;;25.55;6.55;;;;;;;;;;5014046;28;20076;-74
2023/08/02 04:58:16;;;;;;;16.08;6.43;;;;;;;;;;5026441;28;20102;-74
2023/08/02 05:00:42;;;;;;;24.15;6.60;;;;;;;;;;5025193;28;20718;-74
2023/08/02 05:03:08;;;;;;;22.65;6.68;;;;;;;;;;5013915;28;20042;-74
2023/08/02 05:05:34;;;;;;;16.42;6.63;;;;;;;;;;5020464;28;20034;-74
2023/08/02 05:08:01;;;;;;;17.38;6.85;;;;;;;;;;5023939;28;20033;-74
2023/08/02 05:10:27;;;;;;;20.75;7.38;;;;;;;;;;5024135;28;20045;-74
2023/08/02 05:12:53;;;;;;;18.73;7.15;;;;;;;;;;5022280;28;20033;-74
2023/08/02 05:15:19;;;;;;;17.48;7.05;;;;;;;;;;5021208;28;20037;-74
2023/08/02 05:17:45;;;;;;;18.98;7.15;;;;;;;;;;5026897;28;20040;-74
2023/08/02 05:20:11;;;;;;;20.02;6.63;;;;;;;;;;5017628;28;20029;-73
2023/08/02 05:22:37;;;;;;;15.73;6.45;;;;;;;;;;5033125;28;20033;-73
2023/08/02 05:25:03;;;;;;;17.75;6.53;;;;;;;;;;5018806;28;20034;-73
2023/08/02 05:27:29;;;;;;;14.95;7.15;;;;;;;;;;5023564;28;20099;-74
2023/08/02 05:29:55;;;;;;;12.23;6.10;;;;;;;;;;5019726;28;20050;-73
2023/08/02 05:32:21;;;;;;;13.40;6.50;;;;;;;;;;5024479;28;20033;-74
2023/08/02 05:34:47;;;;;;;16.73;6.47;;;;;;;;;;5024793;28;20044;-73
2023/08/02 05:37:13;;;;;;;13.70;6.35;;;;;;;;;;5023467;28;20471;-74
2023/08/02 05:39:39;;;;;;;13.88;6.05;;;;;;;;;;5014767;28;20029;-73
2023/08/02 05:42:06;;;;;;;11.18;5.85;;;;;;;;;;5020990;28;20371;-73
2023/08/02 05:44:32;;;;;;;18.85;6.72;;;;;;;;;;5020291;28;20056;-73
2023/08/02 05:46:58;;;;;;;21.00;7.07;;;;;;;;;;5013328;28;20033;-73
2023/08/02 05:49:24;;;;;;;13.30;6.28;;;;;;;;;;5023281;28;20084;-74
2023/08/02 05:51:50;;;;;;;16.83;7.35;;;;;;;;;;5015369;28;20030;-73
2023/08/02 05:54:16;;;;;;;15.18;6.03;;;;;;;;;;5023345;28;20041;-74
2023/08/02 05:56:43;;;;;;;16.08;6.53;;;;;;;;;;5026038;28;20038;-73
2023/08/02 05:59:09;;;;;;;14.15;6.65;;;;;;;;;;5029999;28;20038;-73
2023/08/02 06:01:35;;;;;;;21.85;6.97;;;;;;;;;;5019603;28;20036;-73
2023/08/02 06:04:01;;;;;;;18.15;6.22;;;;;;;;;;5029901;28;20038;-74
2023/08/02 06:06:27;;;;;;;16.38;6.15;;;;;;;;;;5021849;28;20042;-74
2023/08/02 06:08:53;;;;;;;15.50;6.35;;;;;;;;;;5021405;28;20525;-75
2023/08/02 06:11:19;;;;;;;13.48;5.97;;;;;;;;;;5025787;28;20038;-75
2023/08/02 06:13:45;;;;;;;17.85;7.20;;;;;;;;;;5026758;28;20030;-74
2023/08/02 06:16:11;;;;;;;14.32;6.22;;;;;;;;;;5024932;28;20390;-74
2023/08/02 06:18:37;;;;;;;17.40;5.85;;;;;;;;;;5026446;28;20025;-74
2023/08/02 06:21:03;;;;;;;16.95;5.93;;;;;;;;;;5019867;28;20387;-74
2023/08/02 06:23:29;;;;;;;20.88;6.60;;;;;;;;;;5022590;28;20045;-74
2023/08/02 06:25:55;;;;;;;18.27;6.32;;;;;;;;;;5026076;28;20064;-74
2023/08/02 06:28:21;;;;;;;13.05;5.75;;;;;;;;;;5024544;28;20391;-74
2023/08/02 06:30:47;;;;;;;19.85;6.68;;;;;;;;;;5014302;28;20048;-74
2023/08/02 06:33:13;;;;;;;17.00;6.00;;;;;;;;;;5019478;28;20042;-74
2023/08/02 06:35:39;;;;;;;21.55;6.30;;;;;;;;;;5026417;28;20054;-74
2023/08/02 06:38:05;;;;;;;15.57;5.68;;;;;;;;;;5023408;28;20537;-75
2023/08/02 06:40:31;;;;;;;13.43;5.72;;;;;;;;;;5024961;28;20038;-73
2023/08/02 06:42:57;;;;;;;19.95;5.93;;;;;;;;;;5026648;28;20037;-74
2023/08/02 06:45:23;;;;;;;17.70;6.03;;;;;;;;;;5026862;28;20029;-74
2023/08/02 06:47:49;;;;;;;12.70;5.63;;;;;;;;;;5025689;28;20124;-74
2023/08/02 06:50:15;;;;;;;13.38;5.63;;;;;;;;;;5022669;28;20121;-74
2023/08/02 06:52:41;;;;;;;15.43;6.30;;;;;;;;;;5023839;28;20049;-74
2023/08/02 06:55:07;;;;;;;17.27;5.75;;;;;;;;;;5026684;28;20096;-74
2023/08/02 06:57:33;;;;;;;19.98;6.70;;;;;;;;;;5028782;28;20037;-74
2023/08/02 06:59:59;;;;;;;14.98;5.80;;;;;;;;;;5019324;28;20131;-73
2023/08/02 07:02:25;;;;;;;11.95;5.28;;;;;;;;;;5025037;28;20036;-74
2023/08/02 07:04:51;;;;;;;21.20;7.05;;;;;;;;;;5026125;28;20026;-74
2023/08/02 07:07:17;;;;;;;12.35;5.28;;;;;;;;;;5023771;28;20021;-74
2023/08/02 07:09:47;;;;;;;12.80;5.25;;;;;;;;;;5025117;28;20494;-74
2023/08/02 07:12:13;;;;;;;11.45;4.75;;;;;;;;;;5027835;28;20060;-73
2023/08/02 07:14:39;;;;;;;12.30;4.70;;;;;;;;;;5023693;28;20030;-73
2023/08/02 07:17:05;;;;;;;15.23;5.03;;;;;;;;;;5027991;28;20116;-74
2023/08/02 07:19:31;;;;;;;12.05;5.05;;;;;;;;;;5024751;28;20362;-73
2023/08/02 07:21:57;;;;;;;11.32;4.60;;;;;;;;;;5034906;28;20022;-73
2023/08/02 07:24:23;;;;;;;11.27;4.60;;;;;;;;;;5024265;28;20087;-73
2023/08/02 07:26:49;;;;;;;8.27;5.28;;;;;;;;;;5022478;28;20446;-73
2023/08/02 07:29:15;;;;;;;10.20;5.03;;;;;;;;;;5023973;28;20109;-73
2023/08/02 07:31:42;;;;;;;13.80;4.85;;;;;;;;;;4996159;28;20046;-74
2023/08/02 07:34:08;;;;;;;11.23;4.88;;;;;;;;;;5018489;28;20548;-76
2023/08/02 07:36:35;;;;;;;15.85;5.22;;;;;;;;;;5024362;28;20058;-75
2023/08/02 07:39:01;;;;;;;14.00;5.47;;;;;;;;;;5040036;28;20080;-78
2023/08/02 07:41:27;;;;;;;9.77;4.55;;;;;;;;;;5025690;28;20041;-75
2023/08/02 07:43:54;;;;;;;11.57;5.13;;;;;;;;;;5024214;28;20052;-74
2023/08/02 07:46:21;;;;;;;10.93;4.47;;;;;;;;;;5016826;28;20037;-74
2023/08/02 07:48:47;;;;;;;16.15;4.28;;;;;;;;;;5025517;28;20038;-74
2023/08/02 07:51:13;;;;;;;11.20;4.63;;;;;;;;;;5028005;28;20506;-75
2023/08/02 07:53:39;;;;;;;12.05;4.97;;;;;;;;;;5031354;28;20567;-76
2023/08/02 07:56:05;;;;;;;9.88;4.05;;;;;;;;;;5013884;28;20121;-75
2023/08/02 07:58:31;;;;;;;12.32;4.43;;;;;;;;;;5025215;28;20068;-76
2023/08/02 08:00:57;;;;;;;13.85;4.50;;;;;;;;;;5028712;28;20026;-75
2023/08/02 08:03:23;;;;;;;10.25;4.18;;;;;;;;;;5027988;28;20096;-75
2023/08/02 08:05:49;;;;;;;11.50;4.50;;;;;;;;;;5020005;28;20046;-79
2023/08/02 08:08:15;;;;;;;9.45;4.18;;;;;;;;;;5020937;28;20502;-78
2023/08/02 08:10:41;;;;;;;10.00;4.53;;;;;;;;;;5021867;28;20556;-77
2023/08/02 08:13:07;;;;;;;8.32;3.78;;;;;;;;;;5022828;28;20511;-77
2023/08/02 08:15:33;;;;;;;8.93;4.45;;;;;;;;;;5026940;28;20491;-75
2023/08/02 08:17:59;;;;;;;11.00;4.40;;;;;;;;;;5025232;28;20056;-76
2023/08/02 08:20:25;;;;;;;17.60;4.50;;;;;;;;;;5019056;28;20029;-76
2023/08/02 08:22:51;;;;;;;19.80;5.50;;;;;;;;;;5026674;28;20090;-77
2023/08/02 08:25:17;;;;;;;8.43;4.75;;;;;;;;;;5017754;28;20034;-77
2023/08/02 08:27:43;;;;;;;12.65;4.65;;;;;;;;;;5028048;28;20483;-75
2023/08/02 08:30:10;;;;;;;17.33;5.50;;;;;;;;;;5019508;28;20056;-79
2023/08/02 08:32:36;;;;;;;10.77;4.72;;;;;;;;;;5016227;28;20047;-78
2023/08/02 08:35:03;;;;;;;10.35;5.05;;;;;;;;;;5020779;28;20387;-75
2023/08/02 08:37:29;;;;;;;13.60;4.50;;;;;;;;;;5027083;28;20042;-76
2023/08/02 08:39:55;;;;;;;10.05;4.72;;;;;;;;;;5021205;28;22562;-79
2023/08/02 08:42:21;;;;;;;9.55;5.13;;;;;;;;;;5024635;28;20483;-78
2023/08/02 08:44:47;;;;;;;15.23;5.47;;;;;;;;;;5025148;28;20036;-76
2023/08/02 08:47:14;;;;;;;11.57;4.95;;;;;;;;;;5028884;28;20174;-76
2023/08/02 08:49:40;;;;;;;10.63;5.53;;;;;;;;;;5025223;28;20108;-75
2023/08/02 08:52:08;;;;;;;14.40;5.35;;;;;;;;;;5024442;28;20121;-78
2023/08/02 08:54:36;;;;;;;11.82;4.35;;;;;;;;;;5023506;28;20060;-77
2023/08/02 08:57:03;;;;;;;11.57;4.32;;;;;;;;;;5023893;28;20095;-78
2023/08/02 08:59:30;;;;;;;11.57;5.72;;;;;;;;;;5023408;28;20033;-78
2023/08/02 09:01:58;;;;;;;10.35;4.70;;;;;;;;;;5013840;28;20472;-78
2023/08/02 09:04:24;;;;;;;10.93;4.75;;;;;;;;;;5026579;28;20128;-79
2023/08/02 09:06:50;;;;;;;9.05;5.30;;;;;;;;;;5030559;28;20025;-79
2023/08/02 09:09:16;;;;;;;10.85;5.05;;;;;;;;;;5026972;28;20506;-75
2023/08/02 09:11:45;;;;;;;11.38;6.20;;;;;;;;;;5033521;28;20060;-76
2023/08/02 09:14:12;;;;;;;17.92;6.00;;;;;;;;;;5023040;28;20026;-77
2023/08/02 09:16:56;;;;;;;13.52;5.95;;;;;;;;;;5025459;28;20037;-76
2023/08/02 09:19:23;;;;;;;11.10;6.10;;;;;;;;;;5023095;28;20029;-74
2023/08/02 09:22:04;;;;;;;14.93;5.70;;;;;;;;;;5025689;28;20054;-75
2023/08/02 09:24:35;;;;;;;13.55;6.75;;;;;;;;;;5019070;28;20034;-75
2023/08/02 09:27:01;;;;;;;19.42;7.22;;;;;;;;;;5021480;28;20041;-77
2023/08/02 09:29:42;;;;;;;9.30;6.45;;;;;;;;;;5022398;28;20036;-74
2023/08/02 09:32:08;;;;;;;8.38;5.63;;;;;;;;;;5031552;28;20029;-75
2023/08/02 09:34:43;;;;;;;9.93;5.50;;;;;;;;;;5027503;28;20318;-75
2023/08/02 09:37:11;;;;;;;13.93;5.95;;;;;;;;;;5025014;28;20045;-76
2023/08/02 09:39:37;;;;;;;6.88;5.25;;;;;;;;;;5029808;28;20067;-74
2023/08/02 09:42:11;;;;;;;12.32;7.82;;;;;;;;;;5023656;28;20131;-76
2023/08/02 09:44:37;;;;;;;11.32;5.97;;;;;;;;;;5021400;28;20068;-75
2023/08/02 09:47:11;;;;;;;10.18;5.50;;;;;;;;;;5021145;28;20052;-76
2023/08/02 09:49:37;;;;;;;9.00;5.30;;;;;;;;;;5021165;28;20025;-79
2023/08/02 09:52:03;;;;;;;9.68;4.57;;;;;;;;;;5037603;28;20051;-79
2023/08/02 09:54:30;;;;;;;8.45;5.07;;;;;;;;;;5046875;28;20104;-76
2023/08/02 09:56:57;;;;;;;7.78;4.68;;;;;;;;;;5036571;28;20467;-76
2023/08/02 09:59:26;;;;;;;13.57;5.45;;;;;;;;;;5034244;28;20057;-77
2023/08/02 10:01:52;;;;;;;9.80;4.97;;;;;;;;;;5027375;28;20029;-77
2023/08/02 10:04:18;;;;;;;9.52;5.20;;;;;;;;;;5033814;28;20112;-75
2023/08/02 10:06:47;;;;;;;6.28;4.60;;;;;;;;;;5039142;28;20092;-77
2023/08/02 10:09:19;;;;;;;6.18;4.32;;;;;;;;;;5029155;28;20036;-80
2023/08/02 10:11:49;;;;;;;9.77;4.82;;;;;;;;;;5013623;28;20476;-78
2023/08/02 10:14:16;;;;;;;4.78;3.50;;;;;;;;;;5031617;28;20044;-79
2023/08/02 10:16:43;;;;;;;12.70;3.70;;;;;;;;;;5020747;28;20061;-76
2023/08/02 10:19:12;;;;;;;7.05;3.55;;;;;;;;;;5028938;28;20036;-80
2023/08/02 10:21:39;;;;;;;6.18;4.05;;;;;;;;;;5030219;28;20494;-78
2023/08/02 10:24:06;;;;;;;5.25;3.53;;;;;;;;;;5032613;28;20033;-82
2023/08/02 10:26:33;;;;;;;7.85;3.47;;;;;;;;;;5026883;28;20467;-77
2023/08/02 10:29:00;;;;;;;7.07;3.30;;;;;;;;;;5023971;28;20029;-79
2023/08/02 10:31:26;;;;;;;9.32;3.10;;;;;;;;;;5027803;28;20049;-79
2023/08/02 10:33:52;;;;;;;6.25;3.30;;;;;;;;;;5018460;28;20042;-78
2023/08/02 10:36:18;;;;;;;5.22;3.10;;;;;;;;;;5024080;28;20049;-78
2023/08/02 10:38:46;;;;;;;6.55;2.80;;;;;;;;;;5026522;28;20414;-77
2023/08/02 10:41:16;;;;;;;3.55;2.70;;;;;;;;;;5021106;28;20045;-77
2023/08/02 10:43:54;;;;;;;4.70;2.72;;;;;;;;;;5027955;28;20187;-78
2023/08/02 10:46:25;;;;;;;3.45;2.50;;;;;;;;;;5030813;28;20029;-78
2023/08/02 10:48:51;;;;;;;2.90;1.92;;;;;;;;;;5018102;28;20033;-79
2023/08/02 10:51:32;;;;;;;4.40;2.50;;;;;;;;;;5024081;28;20038;-76
2023/08/02 10:54:25;;;;;;;3.60;2.10;;;;;;;;;;5027959;28;20029;-76
2023/08/02 10:56:51;;;;;;;3.30;1.73;;;;;;;;;;5032644;28;20029;-76
2023/08/02 10:59:18;;;;;;;2.65;1.70;;;;;;;;;;5028577;28;20112;-77
2023/08/02 11:01:57;;;;;;;2.38;1.42;;;;;;;;;;5029445;28;20056;-76
2023/08/02 11:04:23;;;;;;;5.15;1.55;;;;;;;;;;5027975;28;20044;-78
2023/08/02 11:06:50;;;;;;;3.13;1.63;;;;;;;;;;5032520;28;20103;-76
2023/08/02 11:09:16;;;;;;;1.60;1.48;;;;;;;;;;5026191;28;20033;-78
2023/08/02 11:11:42;;;;;;;3.28;1.48;;;;;;;;;;5025522;28;20029;-76
2023/08/02 11:14:08;;;;;;;1.70;1.60;;;;;;;;;;5019858;28;20474;-77
2023/08/02 11:16:40;;;;;;;1.80;1.40;;;;;;;;;;5027658;28;20037;-75
2023/08/02 11:19:10;;;;;;;1.90;1.65;;;;;;;;;;5029449;28;20067;-76
2023/08/02 11:21:39;;;;;;;2.00;1.80;;;;;;;;;;5030103;28;20037;-75
2023/08/02 11:24:05;;;;;;;2.22;2.03;;;;;;;;;;5026749;28;20049;-75
2023/08/02 11:26:31;;;;;;;2.35;1.80;;;;;;;;;;5027347;28;20129;-75
2023/08/02 11:28:57;;;;;;;5.28;1.83;;;;;;;;;;5029735;28;22433;-74
2023/08/02 11:31:24;;;;;;;1.73;1.60;;;;;;;;;;5021795;28;20033;-75
2023/08/02 11:33:50;;;;;;;1.27;1.10;;;;;;;;;;5036601;28;20025;-75
2023/08/02 11:36:16;;;;;;;1.73;1.60;;;;;;;;;;5041655;28;20049;-75
2023/08/02 11:38:42;;;;;;;2.45;1.55;;;;;;;;;;5032454;28;20053;-75
2023/08/02 11:41:18;;;;;;;1.77;1.50;;;;;;;;;;5025410;28;20029;-74
2023/08/02 11:43:45;;;;;;;1.90;1.48;;;;;;;;;;5032098;28;20487;-75
2023/08/02 11:46:27;;;;;;;1.70;1.35;;;;;;;;;;5030466;28;20029;-75
2023/08/02 11:48:53;;;;;;;1.58;1.33;;;;;;;;;;5029445;28;20091;-73
2023/08/02 11:51:20;;;;;;;3.20;1.85;;;;;;;;;;5026249;28;20080;-75
2023/08/02 11:53:54;;;;;;;3.53;1.50;;;;;;;;;;5011514;28;20040;-75
2023/08/02 11:56:21;;;;;;;2.08;1.40;;;;;;;;;;5029183;28;20037;-75
2023/08/02 11:58:48;;;;;;;1.30;1.08;;;;;;;;;;5020491;28;20033;-75
2023/08/02 12:01:14;;;;;;;2.38;1.50;;;;;;;;;;5029698;28;20084;-75
2023/08/02 12:03:52;;;;;;;2.65;1.30;;;;;;;;;;5030688;28;20030;-75
2023/08/02 12:06:18;;;;;;;2.97;1.20;;;;;;;;;;5030650;28;20079;-75
2023/08/02 12:08:51;;;;;;;3.15;1.30;;;;;;;;;;5029728;28;20034;-75
2023/08/02 12:11:17;;;;;;;2.50;1.50;;;;;;;;;;5018828;28;20092;-75
2023/08/02 12:13:44;;;;;;;1.88;1.55;;;;;;;;;;5028906;28;20037;-75
2023/08/02 12:16:11;;;;;;;2.00;1.63;;;;;;;;;;5027363;28;20060;-74
2023/08/02 12:18:57;;;;;;;2.20;1.70;;;;;;;;;;5020722;28;20395;-75
2023/08/02 12:21:24;;;;;;;2.47;1.60;;;;;;;;;;5030277;28;20105;-74
2023/08/02 12:23:50;;;;;;;2.00;1.83;;;;;;;;;;5030327;28;20029;-74
2023/08/02 12:26:29;;;;;;;1.60;1.50;;;;;;;;;;5027182;28;20025;-74
2023/08/02 12:28:55;;;;;;;2.20;1.65;;;;;;;;;;5017663;28;20039;-74
2023/08/02 12:31:21;;;;;;;1.50;1.40;;;;;;;;;;5025667;28;20033;-75
2023/08/02 12:33:48;;;;;;;3.60;2.25;;;;;;;;;;5026758;28;20041;-74
2023/08/02 12:36:27;;;;;;;2.60;2.30;;;;;;;;;;5022594;28;20054;-75
2023/08/02 12:38:53;;;;;;;3.45;2.00;;;;;;;;;;5029367;28;20064;-74
2023/08/02 12:41:20;;;;;;;5.25;1.80;;;;;;;;;;5029074;28;20026;-75
2023/08/02 12:43:46;;;;;;;2.28;2.00;;;;;;;;;;5031241;28;20095;-74
2023/08/02 12:46:12;;;;;;;4.18;2.30;;;;;;;;;;5030430;28;20471;-74
2023/08/02 12:48:38;;;;;;;3.65;1.98;;;;;;;;;;5027328;28;20491;-74
2023/08/02 12:51:04;;;;;;;4.78;2.20;;;;;;;;;;5028409;28;20040;-74
2023/08/02 12:53:30;;;;;;;2.75;1.70;;;;;;;;;;5030783;28;20056;-74
2023/08/02 12:55:56;;;;;;;2.53;1.92;;;;;;;;;;5026635;28;20098;-75
2023/08/02 12:58:22;;;;;;;2.83;1.42;;;;;;;;;;5027522;28;20083;-74
2023/08/02 13:00:48;;;;;;;4.47;1.60;;;;;;;;;;5016391;28;20087;-74
2023/08/02 13:03:14;;;;;;;2.20;1.50;;;;;;;;;;5034442;28;20057;-74
2023/08/02 13:05:40;;;;;;;4.57;1.20;;;;;;;;;;5025670;28;20487;-74
2023/08/02 13:08:07;;;;;;;3.55;1.20;;;;;;;;;;5014459;28;20042;-75
2023/08/02 13:10:33;;;;;;;3.90;2.03;;;;;;;;;;5026369;28;20056;-74
2023/08/02 13:12:59;;;;;;;4.63;1.20;;;;;;;;;;5028904;28;20116;-74
2023/08/02 13:15:25;;;;;;;4.80;1.42;;;;;;;;;;5029561;28;20052;-74
2023/08/02 13:17:51;;;;;;;4.60;1.10;;;;;;;;;;5029789;28;20065;-74
2023/08/02 13:20:17;;;;;;;7.25;1.40;;;;;;;;;;5028004;28;20057;-74
2023/08/02 13:22:43;;;;;;;5.60;1.13;;;;;;;;;;5018442;28;20034;-74
2023/08/02 13:25:09;;;;;;;5.57;1.17;;;;;;;;;;5046034;28;20033;-74
2023/08/02 13:27:35;;;;;;;2.67;1.13;;;;;;;;;;5028539;28;20479;-74
2023/08/02 13:30:02;;;;;;;6.47;1.40;;;;;;;;;;5028989;28;20029;-74
2023/08/02 13:32:34;;;;;;;5.93;1.10;;;;;;;;;;5014266;28;20092;-73
2023/08/02 13:35:03;;;;;;;5.13;1.30;;;;;;;;;;5023717;28;20117;-74
2023/08/02 13:37:29;;;;;;;4.10;1.50;;;;;;;;;;5028115;28;20529;-73
2023/08/02 13:39:55;;;;;;;8.10;1.10;;;;;;;;;;5030242;28;20125;-73
2023/08/02 13:42:23;;;;;;;4.03;0.80;;;;;;;;;;5026836;28;20065;-73
2023/08/02 13:44:50;;;;;;;5.55;1.40;;;;;;;;;;5029245;28;20052;-73
2023/08/02 13:47:16;;;;;;;2.22;0.82;;;;;;;;;;5023501;28;20042;-73
2023/08/02 13:49:42;;;;;;;5.22;1.08;;;;;;;;;;5029454;28;20038;-73
2023/08/02 13:52:08;;;;;;;5.10;1.00;;;;;;;;;;5024581;28;20034;-73
2023/08/02 13:54:34;;;;;;;6.45;1.00;;;;;;;;;;5026161;28;20029;-73
2023/08/02 13:57:00;;;;;;;6.82;1.33;;;;;;;;;;5025876;28;20025;-73
2023/08/02 13:59:26;;;;;;;5.68;1.23;;;;;;;;;;5020241;28;20646;-72
2023/08/02 14:01:52;;;;;;;7.63;1.58;;;;;;;;;;5023891;28;20529;-74
2023/08/02 14:04:18;;;;;;;7.05;1.40;;;;;;;;;;5029988;28;20042;-74
2023/08/02 14:06:44;;;;;;;6.05;1.02;;;;;;;;;;5025887;28;20037;-74
2023/08/02 14:09:10;;;;;;;6.55;1.20;;;;;;;;;;5042030;28;20037;-74
2023/08/02 14:11:36;;;;;;;10.15;1.67;;;;;;;;;;5034935;28;20068;-73
2023/08/02 14:14:02;;;;;;;4.30;1.10;;;;;;;;;;5027768;28;20061;-73
2023/08/02 14:16:28;;;;;;;5.43;1.70;;;;;;;;;;5031261;28;20028;-73
2023/08/02 14:18:54;;;;;;;4.95;1.10;;;;;;;;;;5018785;28;20037;-73
2023/08/02 14:21:20;;;;;;;4.03;1.50;;;;;;;;;;5033920;28;20029;-73
2023/08/02 14:23:46;;;;;;;10.73;2.55;;;;;;;;;;5032711;28;20037;-73
2023/08/02 14:26:12;;;;;;;4.22;1.40;;;;;;;;;;5018047;28;20041;-73
2023/08/02 14:28:38;;;;;;;8.63;2.08;;;;;;;;;;5028906;28;20065;-74
2023/08/02 14:31:04;;;;;;;7.20;1.63;;;;;;;;;;5027930;28;20122;-73
2023/08/02 14:33:30;;;;;;;10.63;2.20;;;;;;;;;;5017537;28;20547;-73
2023/08/02 14:35:56;;;;;;;13.48;2.40;;;;;;;;;;5016262;28;20521;-73